7B2 weather

Northampton Airport
Northampton, Massachusetts, United States

Public forecast

Using degrees Fahrenheit for public forecast. Weather courtesy of forecast.io.

Closest aviation weather report (METAR) to Northampton Airport

Closest report is Westover ARB/Metropolitan Airport, 8.7 nm (16.2 km) SSE. Retrieved 2019/11/18 11:56 UTC (44 minutes ago):

KCEF 181156Z 04009KT 10SM OVC019 01/M04 A2995 RMK AO2A SLP150 T00121037 10018 20010 57011

Closest aviation forecast (TAF) to Northampton Airport

Closest forecast is Westover ARB/Metropolitan Airport, 8.7 nm (16.2 km) SSE. Retrieved 2019/11/18 11:09 UTC (2 hours ago):

TAF TAF KCEF 181100Z 1811/1917 03010G15KT 9999 BKN015 OVC020 620152 540203 QNH2994INS BECMG 1812/1813 02012G20KT 9999 OVC012 620122 540203 QNH2971INS BECMG 1820/1821 35010KT 9000 -DZ BR OVC015 620703 540203 QNH2965INS BECMG 1908/1909 28009KT 9000 -RA BR OVC015 620703 QNH2966INS BECMG 1914/1915 24009KT 9999 NSW BKN015 OVC130 QNH2972INS TX03/1819Z TN01/1812Z